Tajima Maru — JD2342 — position and weather

sailwx.info

Track history (hours):
 
Tides and Currents Weather Stations Pressure Air Temp Water Temp Dewpoint Dewpoint Depression Visibility Wind Speed Wind Dir Waves Ship Positions

Tajima Maru

Last reported at 2018-May-25 05:24 UTC. Time now 2018-May-25 14:24 UTC.
Position N 34°33' E 135°27'.

Length 42 m; draft 3.2 m.

Type: Tug. MMSI: 431000118.

Date/timePositionNaut miles runAvg speedWind from/ knotsBaromVisibWave heightAir tempDewpointWater temp
2018-May-25 05:24N 34°33' E 135°27'2 4.0
2018-May-25 05:00N 34°33' E 135°25'0 0.7
2018-May-25 04:26N 34°33' E 135°25'1 2.9
2018-May-25 04:00N 34°33' E 135°26'0 0.5
2018-May-25 03:29N 34°33' E 135°27'0 0.0
2018-May-25 03:00N 34°33' E 135°27'0 0.0
2018-May-25 02:28N 34°33' E 135°27'0 0.0
2018-May-25 02:00N 34°33' E 135°27'0 0.0
2018-May-25 01:29N 34°33' E 135°27'0 0.0
2018-May-25 01:00N 34°33' E 135°27'0 0.0
2018-May-25 00:29N 34°33' E 135°27'0 0.0
2018-May-25 00:00N 34°33' E 135°27'0 0.0
2018-May-24 23:29N 34°33' E 135°27'0 0.0
2018-May-24 23:00N 34°33' E 135°27'0 0.0
2018-May-24 22:27N 34°33' E 135°27'0 0.0
2018-May-24 22:00N 34°33' E 135°27'0 0.0
2018-May-24 03:08N 34°33' E 135°27'1 7.1
2018-May-24 03:00N 34°33' E 135°25'0 0.4
2018-May-24 01:56N 34°33' E 135°25'0 0.5
2018-May-24 01:30N 34°33' E 135°25'1 2.4
2018-May-24 00:59N 34°33' E 135°24'3 7.2
2018-May-24 00:30N 34°33' E 135°20'1 1.7
2018-May-23 23:59N 34°34' E 135°19'4 8.6
2018-May-23 23:30N 34°34' E 135°24'2 4.1
2018-May-23 23:00N 34°33' E 135°27'0 0.0
2018-May-23 22:30N 34°33' E 135°27'0 0.0
2018-May-23 22:00N 34°33' E 135°27'0 0.0
2018-May-23 09:44N 34°33' E 135°27'2 7.3
2018-May-23 09:30N 34°33' E 135°25'511.0
2018-May-23 09:00N 34°39' E 135°24'0 0.5
2018-May-23 08:30N 34°39' E 135°24'2 3.1
2018-May-23 08:00N 34°38' E 135°23'2 3.9
2018-May-23 07:30N 34°36' E 135°24'0 0.0
2018-May-23 07:00N 34°36' E 135°24'0 0.0
2018-May-23 06:30N 34°36' E 135°24'0 0.0
2018-May-23 06:00N 34°36' E 135°24'0 0.0
2018-May-23 05:30N 34°36' E 135°24'0 0.0
2018-May-23 05:00N 34°36' E 135°24'0 0.0
2018-May-23 04:30N 34°36' E 135°24'3 4.2
2018-May-23 03:52N 34°33' E 135°23'1 1.1
2018-May-23 03:03N 34°34' E 135°24'0 0.6
2018-May-23 02:51N 34°34' E 135°24'0 0.0
2018-May-23 02:30N 34°34' E 135°24'2 3.5
2018-May-23 01:59N 34°33' E 135°27'0 0.0
2018-May-23 01:29N 34°33' E 135°27'0 0.0
2018-May-23 00:58N 34°33' E 135°27'1 1.4
2018-May-23 00:21N 34°33' E 135°26'0 0.9
2018-May-22 23:57N 34°33' E 135°26'0 0.3
2018-May-22 23:27N 34°33' E 135°26'1 1.2
2018-May-22 23:00N 34°33' E 135°27'0 0.0
2018-May-22 22:30N 34°33' E 135°27'0 0.0
2018-May-22 22:00N 34°33' E 135°27'0 0.0
2018-May-21 04:22N 34°33' E 135°27'2 6.8
2018-May-21 04:00N 34°34' E 135°24'4 8.5
2018-May-21 03:31N 34°38' E 135°24'2 4.0
2018-May-21 02:55N 34°38' E 135°27'2 4.5
2018-May-21 02:29N 34°39' E 135°24'1 1.7
2018-May-21 02:00N 34°38' E 135°24'3 5.2
2018-May-21 01:30N 34°36' E 135°22'3 5.4
2018-May-21 00:57N 34°33' E 135°20'4 9.7
2018-May-21 00:29N 34°33' E 135°26'0 0.7
2018-May-20 23:56N 34°33' E 135°26'0 0.1
2018-May-20 23:21N 34°33' E 135°26'0 0.2
2018-May-20 23:00N 34°33' E 135°26'0 0.1
2018-May-20 22:24N 34°33' E 135°26'0 0.1
2018-May-20 21:55N 34°33' E 135°26'0 0.0
2018-May-20 21:28N 34°33' E 135°26'0 0.1
2018-May-20 21:00N 34°33' E 135°26'0 0.1
2018-May-20 20:28N 34°33' E 135°26'0 0.1
2018-May-20 20:00N 34°33' E 135°26'0 0.1
2018-May-20 19:29N 34°33' E 135°26'0 0.1
2018-May-20 18:54N 34°33' E 135°26'0 0.1
2018-May-20 18:28N 34°33' E 135°26'0 0.0
2018-May-20 18:00N 34°33' E 135°26'0 0.1
2018-May-20 17:27N 34°33' E 135°26'0 0.1
2018-May-20 16:57N 34°33' E 135°26'0 0.0
2018-May-20 16:30N 34°33' E 135°26'0 0.1
2018-May-20 16:01N 34°33' E 135°26'0 0.1
2018-May-20 15:31N 34°33' E 135°26'0 0.1
2018-May-20 14:55N 34°33' E 135°26'0 0.1
2018-May-20 14:28N 34°33' E 135°26'0 0.0
2018-May-20 13:59N 34°33' E 135°26'0 0.1
2018-May-20 13:29N 34°33' E 135°26'0 0.1
2018-May-20 13:00N 34°33' E 135°26'0 0.0
2018-May-20 12:28N 34°33' E 135°26'0 0.0
2018-May-20 12:00N 34°33' E 135°26'0 0.1
2018-May-20 11:29N 34°33' E 135°26'0 0.1
2018-May-20 10:59N 34°33' E 135°26'0 0.1
2018-May-20 10:31N 34°33' E 135°26'0 0.1
2018-May-20 09:58N 34°33' E 135°26'0 0.0
2018-May-20 09:30N 34°33' E 135°26'0 0.2
2018-May-20 08:55N 34°33' E 135°26'0 0.3
2018-May-20 08:30N 34°33' E 135°26'0 0.0
2018-May-20 07:58N 34°33' E 135°26'0 0.1
2018-May-20 07:25N 34°33' E 135°26'0 0.1
2018-May-20 06:57N 34°33' E 135°26'0 0.1
2018-May-20 06:29N 34°33' E 135°26'0 0.1
2018-May-20 06:00N 34°33' E 135°26'0 0.1
2018-May-20 05:29N 34°33' E 135°26'0 0.1
2018-May-20 04:59N 34°33' E 135°26'0 0.0
2018-May-20 04:29N 34°33' E 135°26'0 0.0
2018-May-20 03:59N 34°33' E 135°26'1 1.8
2018-May-20 03:31N 34°33' E 135°25'4 7.4
2018-May-20 03:00N 34°33' E 135°20'0 0.6
2018-May-20 02:29N 34°34' E 135°20'0 0.7
2018-May-20 02:00N 34°34' E 135°20'0 0.6
2018-May-20 01:27N 34°34' E 135°21'4 7.7
2018-May-20 00:58N 34°33' E 135°25'0 0.4
2018-May-20 00:17N 34°33' E 135°25'0 0.5
2018-May-20 00:00N 34°33' E 135°25'1 2.6
2018-May-19 23:30N 34°33' E 135°27'0 0.0
2018-May-19 23:00N 34°33' E 135°27'0 0.0
2018-May-19 22:29N 34°33' E 135°27'0 0.0
2018-May-19 22:01N 34°33' E 135°27'  
2018-May-17 06:20N 34°33' E 135°27'0 0.0
2018-May-17 06:00N 34°33' E 135°27'0 0.0
2018-May-17 05:31N 34°33' E 135°27'0 0.0
2018-May-17 05:01N 34°33' E 135°27'0 0.0
2018-May-17 04:31N 34°33' E 135°27'0 0.0
2018-May-17 03:58N 34°33' E 135°27'0 0.0
2018-May-17 03:30N 34°33' E 135°27'0 0.0
2018-May-17 03:01N 34°33' E 135°27'0 0.0
2018-May-17 02:30N 34°33' E 135°27'0 0.0
2018-May-17 01:57N 34°33' E 135°27'0 0.0
2018-May-17 01:30N 34°33' E 135°27'1 2.4
2018-May-17 01:00N 34°33' E 135°25'2 3.4
2018-May-17 00:31N 34°33' E 135°23'2 4.6
2018-May-17 00:00N 34°33' E 135°26'0 0.2
2018-May-16 23:31N 34°33' E 135°26'1 0.0
2018-May-16 09:02N 34°33' E 135°27'0 1.7
2018-May-16 09:00N 34°33' E 135°27'2 4.4
2018-May-16 08:26N 34°32' E 135°24'0 0.1
2018-May-16 07:59N 34°32' E 135°24'0 0.2
2018-May-16 06:28N 34°32' E 135°24'511.7
2018-May-16 06:01N 34°38' E 135°23'2 2.9
2018-May-16 05:29N 34°39' E 135°24'1 2.6
2018-May-16 05:01N 34°38' E 135°23'2 3.4
2018-May-16 04:29N 34°36' E 135°24'0 0.7
2018-May-16 04:00N 34°36' E 135°24'0 0.0
2018-May-16 03:30N 34°36' E 135°24'0 0.0
2018-May-16 03:00N 34°36' E 135°24'0 0.0
2018-May-16 02:26N 34°36' E 135°24'0 0.0
2018-May-16 01:49N 34°36' E 135°24'0 0.0
2018-May-16 01:30N 34°36' E 135°24'0 0.4
2018-May-16 00:56N 34°36' E 135°24'4 6.9
2018-May-16 00:22N 34°32' E 135°24'1 3.3
2018-May-16 00:00N 34°33' E 135°23'0 0.5
2018-May-15 23:27N 34°33' E 135°23'1 1.4
2018-May-15 22:56N 34°33' E 135°24'2 4.6
2018-May-15 22:30N 34°33' E 135°27'0 0.0
2018-May-15 22:00N 34°33' E 135°27'  
Track history (hours):
 
Tides and Currents Weather Stations Pressure Air Temp Water Temp Dewpoint Dewpoint Depression Visibility Wind Speed Wind Dir Waves Ship Positions

Tajima Maru

Last reported at 2018-May-25 05:24 UTC. Time now 2018-May-25 14:24 UTC.
Position N 34°33' E 135°27'.

Length 42 m; draft 3.2 m.

Type: Tug. MMSI: 431000118.

Date/timePositionNaut miles runAvg speedWind from/ knotsBaromVisibWave heightAir tempDewpointWater temp
2018-May-25 05:24N 34°33' E 135°27'2 4.0
2018-May-25 05:00N 34°33' E 135°25'0 0.7
2018-May-25 04:26N 34°33' E 135°25'1 2.9
2018-May-25 04:00N 34°33' E 135°26'0 0.5
2018-May-25 03:29N 34°33' E 135°27'0 0.0
2018-May-25 03:00N 34°33' E 135°27'0 0.0
2018-May-25 02:28N 34°33' E 135°27'0 0.0
2018-May-25 02:00N 34°33' E 135°27'0 0.0
2018-May-25 01:29N 34°33' E 135°27'0 0.0
2018-May-25 01:00N 34°33' E 135°27'0 0.0
2018-May-25 00:29N 34°33' E 135°27'0 0.0
2018-May-25 00:00N 34°33' E 135°27'0 0.0
2018-May-24 23:29N 34°33' E 135°27'0 0.0
2018-May-24 23:00N 34°33' E 135°27'0 0.0
2018-May-24 22:27N 34°33' E 135°27'0 0.0
2018-May-24 22:00N 34°33' E 135°27'0 0.0
2018-May-24 03:08N 34°33' E 135°27'1 7.1
2018-May-24 03:00N 34°33' E 135°25'0 0.4
2018-May-24 01:56N 34°33' E 135°25'0 0.5
2018-May-24 01:30N 34°33' E 135°25'1 2.4
2018-May-24 00:59N 34°33' E 135°24'3 7.2
2018-May-24 00:30N 34°33' E 135°20'1 1.7
2018-May-23 23:59N 34°34' E 135°19'4 8.6
2018-May-23 23:30N 34°34' E 135°24'2 4.1
2018-May-23 23:00N 34°33' E 135°27'0 0.0
2018-May-23 22:30N 34°33' E 135°27'0 0.0
2018-May-23 22:00N 34°33' E 135°27'0 0.0
2018-May-23 09:44N 34°33' E 135°27'2 7.3
2018-May-23 09:30N 34°33' E 135°25'511.0
2018-May-23 09:00N 34°39' E 135°24'0 0.5
2018-May-23 08:30N 34°39' E 135°24'2 3.1
2018-May-23 08:00N 34°38' E 135°23'2 3.9
2018-May-23 07:30N 34°36' E 135°24'0 0.0
2018-May-23 07:00N 34°36' E 135°24'0 0.0
2018-May-23 06:30N 34°36' E 135°24'0 0.0
2018-May-23 06:00N 34°36' E 135°24'0 0.0
2018-May-23 05:30N 34°36' E 135°24'0 0.0
2018-May-23 05:00N 34°36' E 135°24'0 0.0
2018-May-23 04:30N 34°36' E 135°24'3 4.2
2018-May-23 03:52N 34°33' E 135°23'1 1.1
2018-May-23 03:03N 34°34' E 135°24'0 0.6
2018-May-23 02:51N 34°34' E 135°24'0 0.0
2018-May-23 02:30N 34°34' E 135°24'2 3.5
2018-May-23 01:59N 34°33' E 135°27'0 0.0
2018-May-23 01:29N 34°33' E 135°27'0 0.0
2018-May-23 00:58N 34°33' E 135°27'1 1.4
2018-May-23 00:21N 34°33' E 135°26'0 0.9
2018-May-22 23:57N 34°33' E 135°26'0 0.3
2018-May-22 23:27N 34°33' E 135°26'1 1.2
2018-May-22 23:00N 34°33' E 135°27'0 0.0
2018-May-22 22:30N 34°33' E 135°27'0 0.0
2018-May-22 22:00N 34°33' E 135°27'0 0.0
2018-May-21 04:22N 34°33' E 135°27'2 6.8
2018-May-21 04:00N 34°34' E 135°24'4 8.5
2018-May-21 03:31N 34°38' E 135°24'2 4.0
2018-May-21 02:55N 34°38' E 135°27'2 4.5
2018-May-21 02:29N 34°39' E 135°24'1 1.7
2018-May-21 02:00N 34°38' E 135°24'3 5.2
2018-May-21 01:30N 34°36' E 135°22'3 5.4
2018-May-21 00:57N 34°33' E 135°20'4 9.7
2018-May-21 00:29N 34°33' E 135°26'0 0.7
2018-May-20 23:56N 34°33' E 135°26'0 0.1
2018-May-20 23:21N 34°33' E 135°26'0 0.2
2018-May-20 23:00N 34°33' E 135°26'0 0.1
2018-May-20 22:24N 34°33' E 135°26'0 0.1
2018-May-20 21:55N 34°33' E 135°26'0 0.0
2018-May-20 21:28N 34°33' E 135°26'0 0.1
2018-May-20 21:00N 34°33' E 135°26'0 0.1
2018-May-20 20:28N 34°33' E 135°26'0 0.1
2018-May-20 20:00N 34°33' E 135°26'0 0.1
2018-May-20 19:29N 34°33' E 135°26'0 0.1
2018-May-20 18:54N 34°33' E 135°26'0 0.1
2018-May-20 18:28N 34°33' E 135°26'0 0.0
2018-May-20 18:00N 34°33' E 135°26'0 0.1
2018-May-20 17:27N 34°33' E 135°26'0 0.1
2018-May-20 16:57N 34°33' E 135°26'0 0.0
2018-May-20 16:30N 34°33' E 135°26'0 0.1
2018-May-20 16:01N 34°33' E 135°26'0 0.1
2018-May-20 15:31N 34°33' E 135°26'0 0.1
2018-May-20 14:55N 34°33' E 135°26'0 0.1
2018-May-20 14:28N 34°33' E 135°26'0 0.0
2018-May-20 13:59N 34°33' E 135°26'0 0.1
2018-May-20 13:29N 34°33' E 135°26'0 0.1
2018-May-20 13:00N 34°33' E 135°26'0 0.0
2018-May-20 12:28N 34°33' E 135°26'0 0.0
2018-May-20 12:00N 34°33' E 135°26'0 0.1
2018-May-20 11:29N 34°33' E 135°26'0 0.1
2018-May-20 10:59N 34°33' E 135°26'0 0.1
2018-May-20 10:31N 34°33' E 135°26'0 0.1
2018-May-20 09:58N 34°33' E 135°26'0 0.0
2018-May-20 09:30N 34°33' E 135°26'0 0.2
2018-May-20 08:55N 34°33' E 135°26'0 0.3
2018-May-20 08:30N 34°33' E 135°26'0 0.0
2018-May-20 07:58N 34°33' E 135°26'0 0.1
2018-May-20 07:25N 34°33' E 135°26'0 0.1
2018-May-20 06:57N 34°33' E 135°26'0 0.1
2018-May-20 06:29N 34°33' E 135°26'0 0.1
2018-May-20 06:00N 34°33' E 135°26'0 0.1
2018-May-20 05:29N 34°33' E 135°26'0 0.1
2018-May-20 04:59N 34°33' E 135°26'0 0.0
2018-May-20 04:29N 34°33' E 135°26'0 0.0
2018-May-20 03:59N 34°33' E 135°26'1 1.8
2018-May-20 03:31N 34°33' E 135°25'4 7.4
2018-May-20 03:00N 34°33' E 135°20'0 0.6
2018-May-20 02:29N 34°34' E 135°20'0 0.7
2018-May-20 02:00N 34°34' E 135°20'0 0.6
2018-May-20 01:27N 34°34' E 135°21'4 7.7
2018-May-20 00:58N 34°33' E 135°25'0 0.4
2018-May-20 00:17N 34°33' E 135°25'0 0.5
2018-May-20 00:00N 34°33' E 135°25'1 2.6
2018-May-19 23:30N 34°33' E 135°27'0 0.0
2018-May-19 23:00N 34°33' E 135°27'0 0.0
2018-May-19 22:29N 34°33' E 135°27'0 0.0
2018-May-19 22:01N 34°33' E 135°27'  
2018-May-17 06:20N 34°33' E 135°27'0 0.0
2018-May-17 06:00N 34°33' E 135°27'0 0.0
2018-May-17 05:31N 34°33' E 135°27'0 0.0
2018-May-17 05:01N 34°33' E 135°27'0 0.0
2018-May-17 04:31N 34°33' E 135°27'0 0.0
2018-May-17 03:58N 34°33' E 135°27'0 0.0
2018-May-17 03:30N 34°33' E 135°27'0 0.0
2018-May-17 03:01N 34°33' E 135°27'0 0.0
2018-May-17 02:30N 34°33' E 135°27'0 0.0
2018-May-17 01:57N 34°33' E 135°27'0 0.0
2018-May-17 01:30N 34°33' E 135°27'1 2.4
2018-May-17 01:00N 34°33' E 135°25'2 3.4
2018-May-17 00:31N 34°33' E 135°23'2 4.6
2018-May-17 00:00N 34°33' E 135°26'0 0.2
2018-May-16 23:31N 34°33' E 135°26'1 0.0
2018-May-16 09:02N 34°33' E 135°27'0 1.7
2018-May-16 09:00N 34°33' E 135°27'2 4.4
2018-May-16 08:26N 34°32' E 135°24'0 0.1
2018-May-16 07:59N 34°32' E 135°24'0 0.2
2018-May-16 06:28N 34°32' E 135°24'511.7
2018-May-16 06:01N 34°38' E 135°23'2 2.9
2018-May-16 05:29N 34°39' E 135°24'1 2.6
2018-May-16 05:01N 34°38' E 135°23'2 3.4
2018-May-16 04:29N 34°36' E 135°24'0 0.7
2018-May-16 04:00N 34°36' E 135°24'0 0.0
2018-May-16 03:30N 34°36' E 135°24'0 0.0
2018-May-16 03:00N 34°36' E 135°24'0 0.0
2018-May-16 02:26N 34°36' E 135°24'0 0.0
2018-May-16 01:49N 34°36' E 135°24'0 0.0
2018-May-16 01:30N 34°36' E 135°24'0 0.4
2018-May-16 00:56N 34°36' E 135°24'4 6.9
2018-May-16 00:22N 34°32' E 135°24'1 3.3
2018-May-16 00:00N 34°33' E 135°23'0 0.5
2018-May-15 23:27N 34°33' E 135°23'1 1.4
2018-May-15 22:56N 34°33' E 135°24'2 4.6
2018-May-15 22:30N 34°33' E 135°27'0 0.0
2018-May-15 22:00N 34°33' E 135°27'  

Dump ship's entire track history